This is the latest recevied weather packets stored in our database for station/object KR4ELZ. If no packets are shown the sender has not sent any weather packets the latest 10 day(s).
| Time | Temp. | Humidity | Pressure | Rain* | Wind** | Luminosity | Snow |
|---|---|---|---|---|---|---|---|
| 1777823560 | 18.33° C | 44% | 1021.9 hPa | 0 mm | - | 592 W/m² | - |
| 1777822652 | 18.89° C | 45% | 1022.1 hPa | 0 mm | - | 569 W/m² | - |
| 1777822047 | 18.33° C | 44% | 1022.3 hPa | 0 mm | - | 550 W/m² | - |
| 1777821745 | 17.78° C | 46% | 1022.5 hPa | 0 mm | - | 540 W/m² | - |
| 1777821441 | 18.33° C | 45% | 1022.5 hPa | 0 mm | - | 528 W/m² | - |
| 1777821139 | 18.33° C | 45% | 1022.5 hPa | 0 mm | - | 519 W/m² | - |
| 1777820532 | 17.22° C | 48% | 1022.3 hPa | 0 mm | - | 499 W/m² | - |
| 1777820229 | 17.22° C | 50% | 1022.5 hPa | 0 mm | - | 489 W/m² | - |
| 1777819926 | 16.67° C | 49% | 1022.5 hPa | 0 mm | - | 475 W/m² | - |
| 1777819017 | 17.22° C | 55% | 1022.5 hPa | 0 mm | - | 438 W/m² | - |
| 1777818715 | 16.11° C | 57% | 1022.4 hPa | 0 mm | - | 424 W/m² | - |
| 1777818411 | 16.11° C | 57% | 1022.4 hPa | 0 mm | - | 412 W/m² | - |
| 1777818108 | 15.56° C | 60% | 1022.4 hPa | 0 mm | - | 399 W/m² | - |
| 1777817502 | 15.56° C | 62% | 1022.1 hPa | 0 mm | - | 375 W/m² | - |
| 1777815987 | 13.89° C | 68% | 1022.2 hPa | 0 mm | - | 282 W/m² | - |
| 1777815078 | 12.78° C | 74% | 1022.2 hPa | 0 mm | - | 91 W/m² | - |
| 1777812050 | 7.22° C | 97% | 1022.1 hPa | 0 mm | - | 40 W/m² | - |
| 1777811748 | 6.67° C | 97% | 1022.1 hPa | 0 mm | - | 30 W/m² | - |
| 1777811141 | 6.11° C | 97% | 1022 hPa | 0 mm | - | 24 W/m² | - |
| 1777810838 | 5.56° C | 97% | 1022.1 hPa | 0 mm | - | 23 W/m² | - |
| 1777803872 | 4.44° C | 96% | 1020.8 hPa | 0 mm | - | 0 W/m² | - |
| 1777802961 | 4.44° C | 96% | 1020.7 hPa | 0 mm | - | 0 W/m² | - |
| 1777802357 | 4.44° C | 96% | 1020.7 hPa | 0 mm | - | 0 W/m² | - |
| 1777801146 | 5° C | 96% | 1020.5 hPa | 0 mm | - | 0 W/m² | - |
| 1777800843 | 5° C | 96% | 1020.7 hPa | 0 mm | - | 0 W/m² | - |
* Rain latest hour (hover to see other rain measurements)
** Current wind speed in m/s (hover to see current wind gust speed)